Lake City, CO (81235)

10:49 PM MDT on August 28, 2016 (GMT -0600)
Lake City Heights | | Change Station

Elev 8858 ft 38.02 °N, 107.31 °W | Updated 3 seconds ago

Clear
Clear
44.1 °F
Feels Like 44 °F
N
0.0
Wind Variable Wind from WSW
Gusts 0.0 mph

Today
High -- | Low -- °F
--% Chance of Precip.
Yesterday
High -- | Low -- °F
Precip. -- in
Pressure 30.50 in
Visibility 10.0 miles
Clouds Clear
Windchill 44 °F
Dew Point 33 °F
Humidity 66%
Rainfall 0.12 in
Snow Depth Not available.
6:36 AM 7:43 PM
Waning Crescent, 11% visible
METAR KTEX 290435Z AUTO 13004KT 10SM CLR 08/05 A3050 RMK AO2 T00800054
Pressure 30.50 in
Visibility 10.0 miles
Clouds Clear
Windchill 44 °F
Dew Point 33 °F
Humidity 66%
Rainfall 0.12 in
Snow Depth Not available.
6:36 AM 7:43 PM
Waning Crescent, 11% visible
METAR KTEX 290435Z AUTO 13004KT 10SM CLR 08/05 A3050 RMK AO2 T00800054

10-Day Weather Forecast

Almanac

Astronomy

Aug. 28, 2016 Rise Set
Actual Time
Civil Twilight
Nautical Twilight
Astronomical Twilight
Moon
Length of Visible Light
Length of Day
Tomorrow will be .
, % of the Moon is Illuminated

Today's Extremes

State Highs State Lows

Community

WunderPhotos

Upload Photos

1,935,799 photos uploaded!

WunderBlog® & News

Nearby

Air Quality

  Air Quality AQ Index Pollutant
Not available.

Snow Depth

Station Depth Elevation

Earthquake Activity

City Distance Mag. Time & Date
Minimum magnitude displayed is 2.5.

Coastal Water Temperatures

Place Temperature

Stations

Nearby Weather Stations

Station Location Temp. Windchill Dew Point Humidity Wind Precip. Elev Updated Type
                   

Watches & Warnings

There are currently no watches in effect.